aviador You're here:

KTOL Decoded Metar

TOLEDO in OH, USA
Report Time2018-06-25 08:52:00
UTC Time2018-06-25 09:56:04
Flight Rules vfr VFR
WindCalm
Visibility9999 m
Phenomena:N/A
Clouds:N/A
Expected CloudBase > 800 ft AGL from Temp-Dew spread
CeilingNone
Temp16°C (ISA +2)
Dew Point14°C (88% RH)
QNH1020 hPa
Density Alt948 ft
Elevation689 ft
Report Wrong Elevation
Raw Report
KTOL 250852Z 00000KT 10SM CLR 16/14 A3012 RMK AO2 SLP198 T01560139
53008=

Extra information for KTOL:More info

Metar Taf Metar & Taf Last 4 Metars F.Rules Stats Wind Profile Meteogram Temp Stats Airport Information Weather charts Add Link Nearby VenuesMetar ALERT Operation Metar Decoded Social comments

AIRNAV info for KTOL